sensor_id;sensor_type;location;lat;lon;timestamp;temperature;humidity
55365;DHT22;41245;45.384;20.390;2023-06-22T00:00:55;640.50;307.20
55365;DHT22;41245;45.384;20.390;2023-06-22T00:03:23;640.50;358.40
55365;DHT22;41245;45.384;20.390;2023-06-22T00:05:49;640.50;204.80
55365;DHT22;41245;45.384;20.390;2023-06-22T00:08:17;640.50;179.20
55365;DHT22;41245;45.384;20.390;2023-06-22T00:10:43;640.50;204.80
55365;DHT22;41245;45.384;20.390;2023-06-22T00:13:10;640.50;230.40
55365;DHT22;41245;45.384;20.390;2023-06-22T00:15:37;640.50;281.60
55365;DHT22;41245;45.384;20.390;2023-06-22T00:18:03;640.50;332.80
55365;DHT22;41245;45.384;20.390;2023-06-22T00:20:29;640.50;384.00
55365;DHT22;41245;45.384;20.390;2023-06-22T00:22:56;640.60;384.00
55365;DHT22;41245;45.384;20.390;2023-06-22T00:25:22;640.60;281.60
55365;DHT22;41245;45.384;20.390;2023-06-22T00:27:49;640.60;358.40
55365;DHT22;41245;45.384;20.390;2023-06-22T00:30:18;640.60;307.20
55365;DHT22;41245;45.384;20.390;2023-06-22T00:32:45;640.60;384.00
55365;DHT22;41245;45.384;20.390;2023-06-22T00:35:12;640.70;409.60
55365;DHT22;41245;45.384;20.390;2023-06-22T00:37:38;640.50;409.60
55365;DHT22;41245;45.384;20.390;2023-06-22T00:40:08;640.40;307.20
55365;DHT22;41245;45.384;20.390;2023-06-22T00:42:36;640.50;204.80
55365;DHT22;41245;45.384;20.390;2023-06-22T00:45:02;640.40;256.00
55365;DHT22;41245;45.384;20.390;2023-06-22T00:47:28;640.40;281.60
55365;DHT22;41245;45.384;20.390;2023-06-22T00:49:54;640.30;153.60
55365;DHT22;41245;45.384;20.390;2023-06-22T00:52:21;640.20;230.40
55365;DHT22;41245;45.384;20.390;2023-06-22T00:54:55;640.20;128.00
55365;DHT22;41245;45.384;20.390;2023-06-22T00:57:22;640.20;204.80
55365;DHT22;41245;45.384;20.390;2023-06-22T00:59:54;640.20;358.40
55365;DHT22;41245;45.384;20.390;2023-06-22T01:02:19;640.20;332.80
55365;DHT22;41245;45.384;20.390;2023-06-22T01:04:45;640.20;332.80
55365;DHT22;41245;45.384;20.390;2023-06-22T01:07:22;640.20;153.60
55365;DHT22;41245;45.384;20.390;2023-06-22T01:10:07;640.20;128.00
55365;DHT22;41245;45.384;20.390;2023-06-22T01:13:01;640.20;179.20
55365;DHT22;41245;45.384;20.390;2023-06-22T03:57:49;666.40;281.60
55365;DHT22;41245;45.384;20.390;2023-06-22T04:00:15;691.30;358.40
55365;DHT22;41245;45.384;20.390;2023-06-22T04:02:42;692.10;640.00
55365;DHT22;41245;45.384;20.390;2023-06-22T04:05:09;716.90;307.20
55365;DHT22;41245;45.384;20.390;2023-06-22T04:07:35;717.30;768.00
55365;DHT22;41245;45.384;20.390;2023-06-22T04:10:03;692.10;435.20
55365;DHT22;41245;45.384;20.390;2023-06-22T04:12:29;691.80;588.80
55365;DHT22;41245;45.384;20.390;2023-06-22T04:14:55;717.10;588.80
55365;DHT22;41245;45.384;20.390;2023-06-22T04:17:20;742.40;870.40
55365;DHT22;41245;45.384;20.390;2023-06-22T04:19:46;742.90;972.80
55365;DHT22;41245;45.384;20.390;2023-06-22T04:22:12;743.00;870.40
55365;DHT22;41245;45.384;20.390;2023-06-22T04:24:38;742.90;972.80
55365;DHT22;41245;45.384;20.390;2023-06-22T04:27:04;742.90;921.60
55365;DHT22;41245;45.384;20.390;2023-06-22T04:29:30;742.50;896.00
55365;DHT22;41245;45.384;20.390;2023-06-22T04:31:56;717.60;947.20
55365;DHT22;41245;45.384;20.390;2023-06-22T04:34:24;742.40;896.00
55365;DHT22;41245;45.384;20.390;2023-06-22T04:36:52;768.30;1177.60
55365;DHT22;41245;45.384;20.390;2023-06-22T04:39:17;794.10;1305.60
55365;DHT22;41245;45.384;20.390;2023-06-22T04:41:44;819.50;1433.60
55365;DHT22;41245;45.384;20.390;2023-06-22T04:44:17;820.10;1408.00
55365;DHT22;41245;45.384;20.390;2023-06-22T04:46:54;845.40;1433.60
55365;DHT22;41245;45.384;20.390;2023-06-22T04:49:23;845.30;1536.00
55365;DHT22;41245;45.384;20.390;2023-06-22T04:52:04;845.50;1408.00
55365;DHT22;41245;45.384;20.390;2023-06-22T04:54:31;870.70;1587.20
55365;DHT22;41245;45.384;20.390;2023-06-22T04:57:04;871.10;1664.00
55365;DHT22;41245;45.384;20.390;2023-06-22T04:59:31;871.10;1689.60
55365;DHT22;41245;45.384;20.390;2023-06-22T05:02:01;871.20;1766.40
55365;DHT22;41245;45.384;20.390;2023-06-22T05:04:28;896.30;2022.40
55365;DHT22;41245;45.384;20.390;2023-06-22T05:06:57;896.60;2099.20
55365;DHT22;41245;45.384;20.390;2023-06-22T05:09:24;896.90;2048.00
55365;DHT22;41245;45.384;20.390;2023-06-22T05:11:50;921.80;2176.00
55365;DHT22;41245;45.384;20.390;2023-06-22T05:14:17;922.20;2099.20
55365;DHT22;41245;45.384;20.390;2023-06-22T05:16:43;896.80;2048.00
55365;DHT22;41245;45.384;20.390;2023-06-22T05:19:09;871.30;1817.60
55365;DHT22;41245;45.384;20.390;2023-06-22T05:21:34;870.90;1689.60
55365;DHT22;41245;45.384;20.390;2023-06-22T05:24:00;871.00;1920.00
55365;DHT22;41245;45.384;20.390;2023-06-22T05:26:31;870.50;1868.80
55365;DHT22;41245;45.384;20.390;2023-06-22T05:28:58;870.40;1612.80
55365;DHT22;41245;45.384;20.390;2023-06-22T05:31:25;870.70;1868.80
55365;DHT22;41245;45.384;20.390;2023-06-22T05:33:52;845.60;1843.20
55365;DHT22;41245;45.384;20.390;2023-06-22T05:36:18;845.60;1664.00
55365;DHT22;41245;45.384;20.390;2023-06-22T05:38:51;871.20;1817.60
55365;DHT22;41245;45.384;20.390;2023-06-22T05:41:17;921.90;1945.60
55365;DHT22;41245;45.384;20.390;2023-06-22T05:46:09;998.50;2432.00
55365;DHT22;41245;45.384;20.390;2023-06-22T05:48:34;998.70;2432.00
55365;DHT22;41245;45.384;20.390;2023-06-22T05:51:00;999.10;2432.00
55365;DHT22;41245;45.384;20.390;2023-06-22T05:53:26;999.30;2432.00
55365;DHT22;41245;45.384;20.390;2023-06-22T05:55:51;1024.80;2432.00
55365;DHT22;41245;45.384;20.390;2023-06-22T05:58:17;1075.20;2432.00
55365;DHT22;41245;45.384;20.390;2023-06-22T06:00:43;1075.80;2432.00
55365;DHT22;41245;45.384;20.390;2023-06-22T06:03:10;1100.90;2432.00
55365;DHT22;41245;45.384;20.390;2023-06-22T06:05:36;1100.80;2432.00
55365;DHT22;41245;45.384;20.390;2023-06-22T06:08:05;1101.40;2432.00
55365;DHT22;41245;45.384;20.390;2023-06-22T06:10:32;1100.90;2432.00
55365;DHT22;41245;45.384;20.390;2023-06-22T06:12:58;1101.70;2432.00
55365;DHT22;41245;45.384;20.390;2023-06-22T06:15:24;1152.40;2432.00
55365;DHT22;41245;45.384;20.390;2023-06-22T06:42:35;1024.20;2432.00
55365;DHT22;41245;45.384;20.390;2023-06-22T06:45:03;999.20;2432.00
55365;DHT22;41245;45.384;20.390;2023-06-22T06:47:31;973.20;2432.00
55365;DHT22;41245;45.384;20.390;2023-06-22T06:49:56;947.60;2432.00
55365;DHT22;41245;45.384;20.390;2023-06-22T06:54:48;921.70;2355.20
55365;DHT22;41245;45.384;20.390;2023-06-22T06:57:14;921.60;2201.60
55365;DHT22;41245;45.384;20.390;2023-06-22T06:59:40;896.50;2176.00
55365;DHT22;41245;45.384;20.390;2023-06-22T07:02:06;896.10;2252.80
55365;DHT22;41245;45.384;20.390;2023-06-22T07:04:33;896.20;2329.60
55365;DHT22;41245;45.384;20.390;2023-06-22T07:07:01;896.30;2150.40
55365;DHT22;41245;45.384;20.390;2023-06-22T07:09:27;896.10;2099.20
55365;DHT22;41245;45.384;20.390;2023-06-22T07:11:52;871.30;2022.40
55365;DHT22;41245;45.384;20.390;2023-06-22T07:14:18;871.30;2022.40
55365;DHT22;41245;45.384;20.390;2023-06-22T07:16:44;871.30;1996.80
55365;DHT22;41245;45.384;20.390;2023-06-22T07:19:11;871.30;2150.40
55365;DHT22;41245;45.384;20.390;2023-06-22T07:21:38;871.20;1945.60
55365;DHT22;41245;45.384;20.390;2023-06-22T07:24:05;871.10;1971.20
55365;DHT22;41245;45.384;20.390;2023-06-22T07:26:32;871.20;1996.80
55365;DHT22;41245;45.384;20.390;2023-06-22T07:28:57;871.10;2022.40
55365;DHT22;41245;45.384;20.390;2023-06-22T18:08:57;768.20;1203.20
55365;DHT22;41245;45.384;20.390;2023-06-22T18:11:30;743.30;1126.40
55365;DHT22;41245;45.384;20.390;2023-06-22T18:13:57;743.20;1075.20
